createdAt,value
2018-12-03T00:00:00.880Z,17.33
2018-12-03T00:02:33.966Z,17.50
2018-12-03T00:05:06.431Z,17.38
2018-12-03T00:07:38.757Z,17.27
2018-12-03T00:10:11.551Z,17.36
2018-12-03T00:12:43.619Z,17.27
2018-12-03T00:15:15.681Z,17.26
2018-12-03T00:17:47.954Z,17.26
2018-12-03T00:20:20.226Z,17.24
2018-12-03T00:22:52.421Z,17.17
2018-12-03T00:25:24.476Z,17.15
2018-12-03T00:27:56.623Z,17.04
2018-12-03T00:30:28.827Z,17.03
2018-12-03T00:33:00.987Z,17.09
2018-12-03T00:35:33.505Z,17.09
2018-12-03T00:38:05.625Z,17.04
2018-12-03T00:40:37.724Z,17.10
2018-12-03T00:43:09.801Z,17.19
2018-12-03T00:45:41.828Z,17.11
2018-12-03T00:48:13.726Z,17.09
2018-12-03T00:50:45.394Z,17.21
2018-12-03T00:53:17.453Z,17.20
2018-12-03T00:55:49.646Z,17.16
2018-12-03T00:58:21.918Z,17.19
2018-12-03T01:00:53.550Z,17.15
2018-12-03T01:03:25.714Z,17.01
2018-12-03T01:05:58.392Z,16.98
2018-12-03T01:08:30.391Z,17.10
2018-12-03T01:11:02.997Z,17.01
2018-12-03T01:13:34.800Z,17.04
2018-12-03T01:16:06.845Z,16.98
2018-12-03T01:18:40.271Z,16.87
2018-12-03T01:21:12.047Z,16.96
2018-12-03T01:23:44.190Z,16.96
2018-12-03T01:26:15.817Z,16.99
2018-12-03T01:28:47.659Z,17.04
2018-12-03T01:31:21.693Z,16.99
2018-12-03T01:33:54.004Z,16.95
2018-12-03T01:36:26.228Z,16.96
2018-12-03T01:38:58.134Z,17.06
2018-12-03T01:41:29.873Z,16.96
2018-12-03T01:44:01.939Z,16.97
2018-12-03T01:46:33.718Z,17.03
2018-12-03T01:49:05.664Z,17.08
2018-12-03T01:51:37.769Z,17.06
2018-12-03T01:54:09.830Z,17.16
2018-12-03T01:56:44.332Z,17.04
2018-12-03T01:59:16.300Z,17.10
2018-12-03T02:01:48.205Z,17.12
2018-12-03T02:04:19.957Z,17.14
2018-12-03T02:06:52.144Z,19.86
2018-12-03T02:09:24.235Z,19.99
2018-12-03T02:11:56.033Z,20.06
2018-12-03T02:14:28.243Z,20.05
2018-12-03T02:17:00.091Z,19.76
2018-12-03T02:19:33.068Z,19.62
2018-12-03T02:22:04.889Z,19.89
2018-12-03T02:24:37.136Z,20.03
2018-12-03T02:27:09.434Z,20.11
2018-12-03T02:29:41.521Z,20.14
2018-12-03T02:32:13.210Z,20.17
2018-12-03T02:34:45.347Z,20.22
2018-12-03T02:37:17.567Z,20.22
2018-12-03T02:39:49.332Z,20.08
2018-12-03T02:42:21.157Z,20.20
2018-12-03T02:44:52.895Z,20.24
2018-12-03T02:47:24.348Z,20.24
2018-12-03T02:49:56.055Z,20.27
2018-12-03T02:52:28.096Z,20.31
2018-12-03T02:55:00.182Z,20.34
2018-12-03T02:57:32.030Z,20.32
2018-12-03T03:00:04.106Z,20.28
2018-12-03T03:02:36.041Z,20.32
2018-12-03T03:05:09.950Z,20.34
2018-12-03T03:07:41.926Z,20.35
2018-12-03T03:10:15.769Z,20.36
2018-12-03T03:12:48.042Z,20.11
2018-12-03T03:15:19.965Z,20.02
2018-12-03T03:17:52.750Z,20.06
2018-12-03T03:20:25.326Z,20.01
2018-12-03T03:22:57.109Z,20.04
2018-12-03T03:25:29.348Z,20.10
2018-12-03T03:28:01.504Z,20.15
2018-12-03T03:30:33.419Z,20.17
2018-12-03T03:33:05.472Z,20.20
2018-12-03T03:35:37.688Z,20.20
2018-12-03T03:38:10.904Z,20.24
2018-12-03T03:40:42.787Z,20.17
2018-12-03T03:43:14.531Z,20.30
2018-12-03T03:45:46.588Z,20.30
2018-12-03T03:48:18.717Z,20.32
2018-12-03T03:50:50.602Z,20.28
2018-12-03T03:53:22.401Z,20.29
2018-12-03T03:55:54.240Z,20.37
2018-12-03T03:58:26.224Z,20.29
2018-12-03T04:00:57.985Z,20.30
2018-12-03T04:03:29.602Z,20.52
2018-12-03T04:06:01.676Z,20.41
2018-12-03T04:08:33.961Z,20.61
2018-12-03T04:11:05.723Z,20.79
2018-12-03T04:13:37.628Z,20.87
2018-12-03T04:16:09.674Z,20.86
2018-12-03T04:18:41.849Z,20.93
2018-12-03T04:21:14.137Z,20.85
2018-12-03T04:23:46.379Z,20.85
2018-12-03T04:26:18.144Z,20.94
2018-12-03T04:28:50.029Z,20.91
2018-12-03T04:31:21.960Z,20.88
2018-12-03T04:33:53.840Z,21.07
2018-12-03T04:36:25.904Z,20.94
2018-12-03T04:38:58.215Z,20.99
2018-12-03T04:41:30.608Z,21.02
2018-12-03T04:44:02.608Z,20.94
2018-12-03T04:46:34.264Z,20.97
2018-12-03T04:49:06.106Z,20.94
2018-12-03T04:51:37.999Z,20.98
2018-12-03T04:54:10.073Z,20.92
2018-12-03T04:56:41.912Z,20.91
2018-12-03T04:59:13.688Z,20.98
2018-12-03T05:01:45.528Z,21.17
2018-12-03T05:04:16.979Z,21.18
2018-12-03T05:06:49.629Z,20.97
2018-12-03T05:09:22.127Z,21.07
2018-12-03T05:11:54.169Z,20.91
2018-12-03T05:14:25.582Z,21.01
2018-12-03T05:16:57.412Z,20.97
2018-12-03T05:19:29.302Z,21.03
2018-12-03T05:22:00.820Z,21.24
2018-12-03T05:24:32.693Z,21.21
2018-12-03T05:27:04.427Z,21.22
2018-12-03T05:29:36.017Z,21.21
2018-12-03T05:32:09.125Z,21.34
2018-12-03T05:34:40.813Z,21.38
2018-12-03T05:37:12.698Z,21.38
2018-12-03T05:39:45.275Z,21.37
2018-12-03T05:42:17.044Z,21.34
2018-12-03T05:44:48.865Z,21.40
2018-12-03T05:47:20.558Z,21.40
2018-12-03T05:49:52.149Z,21.69
2018-12-03T05:52:23.644Z,21.46
2018-12-03T05:54:55.145Z,21.85
2018-12-03T05:57:26.701Z,21.75
2018-12-03T05:59:58.400Z,21.81
2018-12-03T06:02:29.986Z,21.64
2018-12-03T06:05:01.715Z,21.70
2018-12-03T06:07:33.326Z,21.70
2018-12-03T06:10:05.988Z,21.82
2018-12-03T06:12:37.362Z,21.86
2018-12-03T06:15:11.565Z,21.95
2018-12-03T06:17:43.138Z,21.98
2018-12-03T06:20:17.709Z,22.13
2018-12-03T06:22:49.881Z,22.05
2018-12-03T06:25:22.719Z,22.07
2018-12-03T06:27:54.283Z,22.08
2018-12-03T06:30:26.968Z,22.09
2018-12-03T06:32:58.345Z,22.20
2018-12-03T06:35:29.902Z,22.23
2018-12-03T06:38:01.276Z,22.30
2018-12-03T06:40:34.548Z,22.37
2018-12-03T06:43:06.051Z,22.39
2018-12-03T06:45:37.806Z,22.34
2018-12-03T06:48:17.220Z,22.33
2018-12-03T06:50:48.915Z,22.30
2018-12-03T06:53:20.438Z,22.28
2018-12-03T06:55:52.035Z,22.38
2018-12-03T06:58:23.507Z,22.37
2018-12-03T07:00:54.979Z,22.52
2018-12-03T07:03:26.522Z,22.52
2018-12-03T07:05:58.119Z,22.48
2018-12-03T07:08:30.636Z,22.42
2018-12-03T07:11:02.907Z,22.50
2018-12-03T07:13:34.345Z,22.47
2018-12-03T07:16:05.924Z,22.57
2018-12-03T07:18:38.283Z,22.57
2018-12-03T07:21:09.873Z,22.69
2018-12-03T07:23:43.053Z,22.72
2018-12-03T07:26:15.739Z,22.66
2018-12-03T07:28:47.207Z,22.77
2018-12-03T07:31:19.139Z,22.85
2018-12-03T07:33:50.757Z,22.98
2018-12-03T07:36:22.383Z,22.87
2018-12-03T07:38:53.870Z,22.96
2018-12-03T07:41:27.008Z,22.87
2018-12-03T07:43:58.547Z,22.87
2018-12-03T07:46:30.351Z,22.86
2018-12-03T07:49:01.873Z,23.14
2018-12-03T07:51:33.712Z,23.30
2018-12-03T07:54:05.302Z,23.01
2018-12-03T07:56:36.931Z,22.96
2018-12-03T07:59:08.751Z,22.82
2018-12-03T08:01:40.397Z,23.12
2018-12-03T08:04:12.059Z,22.98
2018-12-03T08:06:43.758Z,23.03
2018-12-03T08:09:15.371Z,23.15
2018-12-03T08:11:47.947Z,23.10
2018-12-03T08:14:20.613Z,23.07
2018-12-03T08:16:52.678Z,23.10
2018-12-03T08:19:28.320Z,23.09
2018-12-03T08:22:03.350Z,23.17
2018-12-03T08:24:35.098Z,23.12
2018-12-03T08:27:07.057Z,23.05
2018-12-03T08:29:39.722Z,23.18
2018-12-03T08:32:11.295Z,23.24
2018-12-03T08:34:42.706Z,23.20
2018-12-03T08:37:15.034Z,23.19
2018-12-03T08:39:46.753Z,23.16
2018-12-03T08:42:19.411Z,23.24
2018-12-03T08:44:51.912Z,23.12
2018-12-03T08:47:23.639Z,23.28
2018-12-03T08:49:55.683Z,23.24
2018-12-03T08:52:27.694Z,23.32
2018-12-03T08:55:00.180Z,23.28
2018-12-03T08:57:32.538Z,23.22
2018-12-03T09:00:04.772Z,23.27
2018-12-03T09:02:36.328Z,23.19
2018-12-03T09:05:09.046Z,23.15
2018-12-03T09:07:42.806Z,23.33
2018-12-03T09:10:17.444Z,23.33
2018-12-03T09:12:49.774Z,23.38
2018-12-03T09:15:21.199Z,23.37
2018-12-03T09:17:52.929Z,23.42
2018-12-03T09:20:25.275Z,23.49
2018-12-03T09:22:57.557Z,23.42
2018-12-03T09:25:29.284Z,23.48
2018-12-03T09:28:01.084Z,23.54
2018-12-03T09:30:33.084Z,23.44
2018-12-03T09:33:04.924Z,23.44
2018-12-03T09:35:37.258Z,23.37
2018-12-03T09:38:11.308Z,23.29
2018-12-03T09:40:42.847Z,23.38
2018-12-03T09:43:15.902Z,23.30
2018-12-03T09:45:47.774Z,23.47
2018-12-03T09:48:19.356Z,23.40
2018-12-03T09:50:50.870Z,23.46
2018-12-03T09:53:22.639Z,23.43
2018-12-03T09:55:54.440Z,23.33
2018-12-03T09:58:26.581Z,23.48
2018-12-03T10:00:58.821Z,23.48
2018-12-03T10:03:35.561Z,23.52
2018-12-03T10:06:15.986Z,23.45
2018-12-03T10:08:48.057Z,23.46
2018-12-03T10:11:19.673Z,23.49
2018-12-03T10:13:52.571Z,23.50
2018-12-03T10:16:24.625Z,23.38
2018-12-03T10:19:00.333Z,23.28
2018-12-03T10:21:28.419Z,23.31
2018-12-03T10:24:00.209Z,23.36
2018-12-03T10:26:33.110Z,23.32
2018-12-03T10:29:05.334Z,23.27
2018-12-03T10:31:37.405Z,23.31
2018-12-03T10:34:12.142Z,23.36
2018-12-03T10:36:51.586Z,23.27
2018-12-03T10:39:28.625Z,23.35
2018-12-03T10:42:09.137Z,23.28
2018-12-03T10:44:41.807Z,23.23
2018-12-03T10:47:13.915Z,23.25
2018-12-03T10:49:45.978Z,23.25
2018-12-03T10:52:22.485Z,23.33
2018-12-03T10:54:54.705Z,23.33
2018-12-03T10:57:26.626Z,23.33
2018-12-03T10:59:59.216Z,23.28
2018-12-03T11:02:38.237Z,23.34
2018-12-03T11:05:15.435Z,23.40
2018-12-03T11:07:47.974Z,23.40
2018-12-03T11:10:20.180Z,23.36
2018-12-03T11:12:53.827Z,23.39
2018-12-03T11:15:26.247Z,23.40
2018-12-03T11:17:57.864Z,23.41
2018-12-03T11:20:30.790Z,23.39
2018-12-03T11:23:03.669Z,23.37
2018-12-03T11:25:37.232Z,23.36
2018-12-03T11:28:11.114Z,23.33
2018-12-03T11:30:51.804Z,23.34
2018-12-03T11:33:28.260Z,23.32
2018-12-03T11:36:01.426Z,23.28
2018-12-03T11:38:39.204Z,23.27
2018-12-03T11:41:11.172Z,23.24
2018-12-03T11:43:42.816Z,23.21
2018-12-03T11:46:17.678Z,23.17
2018-12-03T11:48:49.351Z,23.17
2018-12-03T11:51:21.414Z,23.15
2018-12-03T11:53:55.556Z,23.10
2018-12-03T11:56:27.526Z,23.08
2018-12-03T11:58:59.470Z,23.06
2018-12-03T12:01:31.393Z,23.06
2018-12-03T12:04:04.313Z,23.03
2018-12-03T12:06:36.162Z,23.02
2018-12-03T12:09:12.208Z,22.82
2018-12-03T12:11:44.215Z,22.81
2018-12-03T12:14:21.659Z,22.78
2018-12-03T12:16:53.763Z,22.74
2018-12-03T12:19:25.340Z,22.69
2018-12-03T12:21:57.346Z,22.68
2018-12-03T12:24:30.894Z,22.66
2018-12-03T12:27:02.728Z,22.61
2018-12-03T12:29:39.074Z,22.57
2018-12-03T12:32:10.916Z,22.59
2018-12-03T12:34:43.616Z,22.49
2018-12-03T12:37:15.512Z,22.44
2018-12-03T12:39:47.407Z,22.41
2018-12-03T12:42:19.397Z,22.40
2018-12-03T12:44:51.422Z,22.44
2018-12-03T12:47:24.262Z,22.42
2018-12-03T12:50:00.468Z,22.41
2018-12-03T12:52:32.709Z,22.40
2018-12-03T12:55:04.188Z,22.41
2018-12-03T12:57:35.904Z,22.42
2018-12-03T13:00:13.028Z,22.34
2018-12-03T13:02:46.379Z,22.33
2018-12-03T13:05:18.145Z,22.29
2018-12-03T13:07:49.615Z,22.33
2018-12-03T13:10:21.190Z,22.34
2018-12-03T13:12:54.094Z,22.45
2018-12-03T13:15:26.042Z,22.51
2018-12-03T13:17:58.586Z,22.48
2018-12-03T13:51:22.973Z,22.51
2018-12-03T13:53:55.376Z,22.39
2018-12-03T13:56:27.175Z,22.24
2018-12-03T13:58:59.313Z,22.12
2018-12-03T14:01:31.150Z,22.13
2018-12-03T14:04:08.391Z,22.10
2018-12-03T14:06:45.553Z,22.03
2018-12-03T14:11:36.467Z,21.99
2018-12-03T14:14:23.103Z,21.94
2018-12-03T14:17:02.253Z,21.93
2018-12-03T14:19:35.021Z,21.92
2018-12-03T14:22:14.695Z,21.92
2018-12-03T14:24:47.571Z,21.88
2018-12-03T14:27:19.232Z,21.89
2018-12-03T14:29:51.470Z,21.88
2018-12-03T14:32:23.375Z,21.87
2018-12-03T14:34:56.174Z,21.85
2018-12-03T14:37:28.928Z,21.80
2018-12-03T14:40:00.997Z,21.79
2018-12-03T14:42:33.457Z,21.49
2018-12-03T14:45:05.901Z,21.65
2018-12-03T14:47:38.099Z,21.70
2018-12-03T14:50:12.207Z,21.59
2018-12-03T14:52:44.051Z,21.55
2018-12-03T14:55:16.984Z,21.63
2018-12-03T14:57:49.282Z,21.63
2018-12-03T15:00:21.333Z,21.52
2018-12-03T15:02:53.170Z,21.48
2018-12-03T15:05:25.240Z,21.56
2018-12-03T15:07:56.765Z,21.52
2018-12-03T15:10:28.536Z,21.52
2018-12-03T15:13:00.365Z,21.56
2018-12-03T15:15:32.050Z,21.55
2018-12-03T15:18:03.582Z,21.53
2018-12-03T15:20:35.483Z,21.58
2018-12-03T15:23:07.584Z,21.68
2018-12-03T15:25:39.966Z,21.84
2018-12-03T15:28:15.453Z,21.87
2018-12-03T15:30:46.989Z,21.55
2018-12-03T15:33:18.658Z,21.17
2018-12-03T15:35:50.272Z,21.03
2018-12-03T15:38:21.763Z,20.99
2018-12-03T15:40:53.835Z,20.94
2018-12-03T15:43:26.338Z,20.95
2018-12-03T15:45:58.437Z,21.01
2018-12-03T15:48:30.304Z,21.00
2018-12-03T15:51:02.304Z,20.86
2018-12-03T15:53:34.471Z,20.81
2018-12-03T15:56:07.272Z,20.73
2018-12-03T15:58:38.933Z,20.80
2018-12-03T16:01:14.436Z,20.71
2018-12-03T16:03:44.877Z,20.72
2018-12-03T16:06:17.149Z,20.61
2018-12-03T16:08:48.798Z,20.55
2018-12-03T16:11:20.601Z,20.58
2018-12-03T16:13:52.157Z,20.56
2018-12-03T16:16:24.103Z,20.60
2018-12-03T16:18:56.041Z,20.59
2018-12-03T16:21:27.798Z,20.47
2018-12-03T16:23:59.761Z,20.49
2018-12-03T16:26:31.808Z,20.44
2018-12-03T16:29:03.728Z,20.41
2018-12-03T16:31:36.893Z,20.41
2018-12-03T16:34:08.808Z,20.43
2018-12-03T16:36:40.647Z,20.47
2018-12-03T16:39:12.610Z,20.33
2018-12-03T16:41:44.556Z,20.28
2018-12-03T16:44:16.618Z,20.23
2018-12-03T16:46:49.124Z,20.34
2018-12-03T16:49:21.178Z,20.39
2018-12-03T16:51:53.179Z,20.30
2018-12-03T16:54:24.692Z,20.19
2018-12-03T16:56:57.721Z,20.09
2018-12-03T16:59:29.298Z,20.02
2018-12-03T17:02:01.302Z,19.99
2018-12-03T17:04:33.197Z,20.13
2018-12-03T17:07:05.122Z,20.08
2018-12-03T17:09:36.808Z,20.03
2018-12-03T17:12:11.341Z,20.00
2018-12-03T17:14:43.127Z,19.98
2018-12-03T17:17:16.730Z,20.02
2018-12-03T17:19:54.858Z,19.97
2018-12-03T17:23:03.664Z,19.94
2018-12-03T17:25:35.184Z,19.97
2018-12-03T17:28:07.423Z,19.96
2018-12-03T17:30:39.118Z,19.98
2018-12-03T17:33:10.812Z,19.87
2018-12-03T17:38:43.731Z,19.92
2018-12-03T17:41:15.466Z,19.88
2018-12-03T17:43:48.769Z,19.71
2018-12-03T17:46:21.977Z,19.64
2018-12-03T17:48:54.896Z,19.66
2018-12-03T17:51:27.292Z,19.74
2018-12-03T17:54:03.657Z,19.65
2018-12-03T17:56:36.759Z,19.66
2018-12-03T17:59:09.778Z,19.64
2018-12-03T18:01:42.288Z,19.71
2018-12-03T18:04:15.905Z,19.62
2018-12-03T18:06:49.740Z,19.52
2018-12-03T18:09:22.565Z,19.46
2018-12-03T18:11:54.226Z,19.44
2018-12-03T18:14:27.329Z,19.45
2018-12-03T18:16:59.963Z,19.49
2018-12-03T18:19:33.711Z,19.44
2018-12-03T18:22:07.676Z,19.41
2018-12-03T18:24:43.701Z,19.47
2018-12-03T18:27:15.505Z,19.60
2018-12-03T18:29:49.107Z,19.70
2018-12-03T18:32:30.397Z,19.66
2018-12-03T18:35:11.894Z,19.56
2018-12-03T18:37:45.613Z,19.38
2018-12-03T18:40:20.421Z,19.46
2018-12-03T18:42:54.140Z,19.41
2018-12-03T18:45:26.019Z,19.38
2018-12-03T18:47:57.441Z,19.31
2018-12-03T18:50:33.065Z,19.33
2018-12-03T18:53:10.505Z,19.25
2018-12-03T18:55:42.068Z,19.15
2018-12-03T18:58:15.878Z,19.05
2018-12-03T19:00:48.956Z,19.02
2018-12-03T19:03:20.529Z,19.16
2018-12-03T19:05:53.066Z,19.11
2018-12-03T19:08:24.870Z,19.17
2018-12-03T19:10:57.924Z,19.14
2018-12-03T19:13:30.667Z,19.09
2018-12-03T19:16:02.756Z,19.06
2018-12-03T19:18:34.604Z,19.06
2018-12-03T19:21:06.549Z,19.18
2018-12-03T19:23:38.776Z,19.12
2018-12-03T19:26:10.513Z,19.00
2018-12-03T19:28:42.904Z,18.86
2018-12-03T19:31:15.080Z,18.82
2018-12-03T19:33:49.091Z,18.95
2018-12-03T19:36:25.839Z,19.07
2018-12-03T19:38:57.714Z,18.96
2018-12-03T19:41:29.792Z,18.99
2018-12-03T19:44:02.815Z,18.95
2018-12-03T19:46:35.380Z,18.83
2018-12-03T19:49:08.152Z,18.84
2018-12-03T19:51:41.661Z,18.84
2018-12-03T19:54:14.794Z,18.88
2018-12-03T19:56:47.476Z,18.84
2018-12-03T19:59:19.129Z,18.87
2018-12-03T20:01:51.454Z,18.86
2018-12-03T20:04:28.128Z,18.73
2018-12-03T20:06:59.806Z,18.65
2018-12-03T20:09:31.146Z,18.76
2018-12-03T20:12:02.635Z,18.81
2018-12-03T20:14:34.023Z,18.92
2018-12-03T20:17:09.174Z,18.89
2018-12-03T20:19:43.880Z,18.58
2018-12-03T20:22:18.557Z,18.81
2018-12-03T20:24:50.250Z,18.81
2018-12-03T20:27:32.238Z,18.84
2018-12-03T20:31:14.268Z,18.64
2018-12-03T20:34:24.089Z,18.69
2018-12-03T20:37:06.794Z,18.62
2018-12-03T20:39:50.750Z,18.52
2018-12-03T20:42:26.942Z,18.65
2018-12-03T20:45:16.676Z,18.62
2018-12-03T20:47:51.724Z,18.40
2018-12-03T20:50:35.361Z,18.44
2018-12-03T20:53:10.708Z,18.51
2018-12-03T20:55:45.388Z,18.37
2018-12-03T20:58:17.303Z,18.32
2018-12-03T21:00:49.056Z,18.58
2018-12-03T21:03:22.401Z,18.75
2018-12-03T21:05:55.245Z,18.56
2018-12-03T21:08:32.747Z,18.78
2018-12-03T21:11:05.637Z,18.92
2018-12-03T21:13:39.661Z,18.61
2018-12-03T21:16:11.609Z,18.40
2018-12-03T21:18:43.584Z,18.50
2018-12-03T21:21:15.560Z,18.42
2018-12-03T21:23:48.241Z,18.57
2018-12-03T21:26:19.940Z,18.36
2018-12-03T21:28:51.911Z,18.24
2018-12-03T21:31:24.631Z,18.07
2018-12-03T21:33:56.203Z,18.13
2018-12-03T21:36:29.470Z,18.03
2018-12-03T21:39:02.502Z,18.02
2018-12-03T21:41:36.964Z,18.03
2018-12-03T21:44:08.684Z,17.93
2018-12-03T21:46:40.789Z,18.00
2018-12-03T21:49:12.760Z,17.96
2018-12-03T21:51:45.480Z,17.99
2018-12-03T21:54:22.235Z,17.95
2018-12-03T21:56:54.373Z,18.02
2018-12-03T21:59:27.477Z,18.04
2018-12-03T22:02:01.537Z,18.24
2018-12-03T22:04:34.302Z,18.05
2018-12-03T22:07:17.135Z,18.02
2018-12-03T22:09:50.066Z,17.90
2018-12-03T22:12:25.376Z,18.06
2018-12-03T22:15:01.479Z,17.87
2018-12-03T22:17:36.877Z,17.92
2018-12-03T22:20:15.245Z,17.90
2018-12-03T22:22:47.244Z,17.96
2018-12-03T22:25:20.945Z,17.93
2018-12-03T22:27:58.749Z,17.87
2018-12-03T22:30:30.797Z,17.90
2018-12-03T22:33:07.538Z,17.87
2018-12-03T22:35:39.203Z,17.70
2018-12-03T22:38:11.467Z,17.65
2018-12-03T22:40:45.055Z,17.68
2018-12-03T22:43:19.435Z,17.64
2018-12-03T22:45:57.104Z,17.66
2018-12-03T22:48:33.985Z,17.62
2018-12-03T22:51:08.031Z,17.63
2018-12-03T22:53:40.616Z,17.68
2018-12-03T22:56:12.994Z,17.67
2018-12-03T22:58:46.537Z,17.66
2018-12-03T23:01:25.136Z,17.66
2018-12-03T23:03:57.065Z,17.67
2018-12-03T23:06:29.985Z,17.60
2018-12-03T23:09:02.107Z,17.63
2018-12-03T23:11:36.173Z,17.61
2018-12-03T23:14:08.173Z,17.61
2018-12-03T23:16:40.892Z,17.54
2018-12-03T23:19:14.606Z,17.55
2018-12-03T23:21:47.749Z,17.59
2018-12-03T23:24:20.370Z,17.58
2018-12-03T23:26:53.202Z,17.54
2018-12-03T23:29:24.936Z,17.51
2018-12-03T23:31:56.979Z,17.56
2018-12-03T23:34:28.624Z,17.48
2018-12-03T23:37:04.343Z,17.34
2018-12-03T23:39:37.269Z,17.42
2018-12-03T23:42:09.079Z,17.44
2018-12-03T23:44:40.702Z,17.39
2018-12-03T23:47:13.904Z,17.35
2018-12-03T23:49:47.518Z,17.26
2018-12-03T23:52:19.544Z,17.39
2018-12-03T23:54:51.439Z,17.43
2018-12-03T23:57:23.616Z,17.36
2018-12-03T23:59:58.757Z,17.31
